createdAt,value
2023-09-13T00:03:14.300Z,12.45
2023-09-13T00:08:19.261Z,12.88
2023-09-13T00:18:25.870Z,11.95
2023-09-13T00:23:30.850Z,11.95
2023-09-13T00:28:34.300Z,12.10
2023-09-13T00:33:37.868Z,12.13
2023-09-13T00:38:42.776Z,11.75
2023-09-13T00:43:46.723Z,12.10
2023-09-13T00:48:51.250Z,11.85
2023-09-13T00:53:57.531Z,12.60
2023-09-13T00:59:01.229Z,13.20
2023-09-13T01:04:05.673Z,12.38
2023-09-13T01:09:10.663Z,11.73
2023-09-13T01:14:14.256Z,12.27
2023-09-13T01:19:38.684Z,12.23
2023-09-13T01:25:02.665Z,13.20
2023-09-13T01:30:11.647Z,11.80
2023-09-13T01:35:15.385Z,12.18
2023-09-13T01:40:19.241Z,11.77
2023-09-13T01:45:25.979Z,11.63
2023-09-13T01:50:29.797Z,12.75
2023-09-13T01:55:36.298Z,12.65
2023-09-13T02:00:42.801Z,11.52
2023-09-13T02:05:47.692Z,12.23
2023-09-13T02:10:51.525Z,12.68
2023-09-13T02:15:56.643Z,12.80
2023-09-13T02:21:00.298Z,12.25
2023-09-13T02:26:04.543Z,11.50
2023-09-13T02:31:09.588Z,11.52
2023-09-13T02:36:13.089Z,12.13
2023-09-13T02:41:16.622Z,12.15
2023-09-13T02:46:21.615Z,12.13
2023-09-13T02:51:25.282Z,12.55
2023-09-13T02:56:28.733Z,12.40
2023-09-13T03:01:33.813Z,12.98
2023-09-13T03:06:37.347Z,11.80
2023-09-13T03:11:40.779Z,11.18
2023-09-13T03:16:45.685Z,12.23
2023-09-13T03:21:50.391Z,13.35
2023-09-13T03:26:53.880Z,12.57
2023-09-13T03:31:58.849Z,14.13
2023-09-13T03:37:02.506Z,12.95
2023-09-13T03:42:06.250Z,11.20
2023-09-13T03:47:11.283Z,11.07
2023-09-13T03:52:14.936Z,12.50
2023-09-13T03:57:18.491Z,12.40
2023-09-13T04:02:23.700Z,14.10
2023-09-13T04:07:27.330Z,12.93
2023-09-13T04:12:30.768Z,11.48
2023-09-13T04:17:35.784Z,15.25
2023-09-13T04:22:39.396Z,15.48
2023-09-13T04:27:45.125Z,14.90
2023-09-13T04:32:50.091Z,15.20
2023-09-13T04:37:55.262Z,16.30
2023-09-13T04:43:25.051Z,15.63
2023-09-13T04:48:30.147Z,19.10
2023-09-13T04:53:34.886Z,17.23
2023-09-13T05:03:46.595Z,20.90
2023-09-13T05:08:52.173Z,17.95
2023-09-13T05:14:11.227Z,18.23
2023-09-13T05:19:16.193Z,18.10
2023-09-13T05:24:19.846Z,20.25
2023-09-13T05:29:24.143Z,19.05
2023-09-13T05:34:29.787Z,18.95
2023-09-13T05:39:33.327Z,18.58
2023-09-13T05:44:36.882Z,19.00
2023-09-13T05:49:41.765Z,18.10
2023-09-13T05:54:45.310Z,18.83
2023-09-13T05:59:48.774Z,17.58
2023-09-13T06:04:53.765Z,16.50
2023-09-13T06:09:59.666Z,15.57
2023-09-13T06:15:03.254Z,16.42
2023-09-13T06:20:10.250Z,15.45
2023-09-13T06:25:15.798Z,14.57
2023-09-13T06:30:20.882Z,13.55
2023-09-13T06:35:25.993Z,12.68
2023-09-13T06:40:35.594Z,12.45
2023-09-13T06:45:54.147Z,10.63
2023-09-13T06:56:13.777Z,10.95
2023-09-13T07:06:26.263Z,8.95
2023-09-13T07:11:30.025Z,8.32
2023-09-13T07:16:33.771Z,8.00
2023-09-13T07:21:38.864Z,7.70
2023-09-13T07:26:42.371Z,7.40
2023-09-13T07:31:46.042Z,7.35
2023-09-13T07:36:51.004Z,7.25
2023-09-13T07:41:54.586Z,6.90
2023-09-13T07:46:58.207Z,6.78
2023-09-13T07:52:03.580Z,6.03
2023-09-13T07:57:07.370Z,5.55
2023-09-13T08:02:10.944Z,5.82
2023-09-13T08:07:15.933Z,6.35
2023-09-13T08:12:19.538Z,6.03
2023-09-13T08:17:23.165Z,6.10
2023-09-13T08:22:39.268Z,5.90
2023-09-13T08:27:44.299Z,5.25
2023-09-13T08:32:48.146Z,5.88
2023-09-13T08:37:53.140Z,4.80
2023-09-13T08:42:58.053Z,5.68
2023-09-13T08:48:03.684Z,5.28
2023-09-13T08:53:10.180Z,4.65
2023-09-13T08:58:13.709Z,4.50
2023-09-13T09:03:19.641Z,5.30
2023-09-13T09:08:26.320Z,5.05
2023-09-13T09:13:31.084Z,5.30
2023-09-13T09:18:38.950Z,5.57
2023-09-13T09:23:44.743Z,5.55
2023-09-13T09:28:52.059Z,5.68
2023-09-13T09:34:04.575Z,6.15
2023-09-13T09:39:09.880Z,5.97
2023-09-13T09:44:13.521Z,5.68
2023-09-13T09:49:17.026Z,6.45
2023-09-13T09:54:22.079Z,7.15
2023-09-13T09:59:30.357Z,6.25
2023-09-13T10:04:47.487Z,6.50
2023-09-13T10:09:52.860Z,5.55
2023-09-13T10:14:58.645Z,6.38
2023-09-13T10:20:04.984Z,6.25
2023-09-13T10:25:14.026Z,5.15
2023-09-13T10:30:23.169Z,5.22
2023-09-13T10:35:30.566Z,4.82
2023-09-13T10:40:42.394Z,5.50
2023-09-13T10:45:46.207Z,5.88
2023-09-13T10:50:50.941Z,5.10
2023-09-13T10:55:56.729Z,5.07
2023-09-13T11:01:00.968Z,4.90
2023-09-13T11:06:05.473Z,4.57
2023-09-13T11:11:13.484Z,4.72
2023-09-13T11:16:17.525Z,5.18
2023-09-13T11:21:22.605Z,4.60
2023-09-13T11:26:50.288Z,5.22
2023-09-13T11:32:02.327Z,4.97
2023-09-13T11:37:08.873Z,5.28
2023-09-13T11:42:25.805Z,4.53
2023-09-13T11:47:37.750Z,5.20
2023-09-13T11:53:14.791Z,5.03
2023-09-13T11:58:51.110Z,4.65
2023-09-13T12:09:00.279Z,5.03
2023-09-13T12:14:12.723Z,4.40
2023-09-13T12:19:19.772Z,4.20
2023-09-13T12:24:26.244Z,4.20
2023-09-13T12:29:31.344Z,4.38
2023-09-13T12:34:34.999Z,4.13
2023-09-13T12:39:38.565Z,4.25
2023-09-13T12:44:47.120Z,4.25
2023-09-13T12:49:52.226Z,4.55
2023-09-13T12:54:57.581Z,3.83
2023-09-13T13:00:02.489Z,4.32
2023-09-13T13:05:08.736Z,4.43
2023-09-13T13:10:16.816Z,4.82
2023-09-13T13:15:22.804Z,4.70
2023-09-13T13:20:27.994Z,4.10
2023-09-13T13:25:31.843Z,4.10
2023-09-13T13:30:37.466Z,4.55
2023-09-13T13:35:41.218Z,4.80
2023-09-13T13:40:44.751Z,5.10
2023-09-13T13:45:49.815Z,5.50
2023-09-13T13:50:53.406Z,5.95
2023-09-13T13:55:57.144Z,5.65
2023-09-13T14:01:05.039Z,6.05
2023-09-13T14:06:08.760Z,5.65
2023-09-13T14:11:12.331Z,5.47
2023-09-13T14:16:17.380Z,5.57
2023-09-13T14:21:20.957Z,5.10
2023-09-13T14:26:24.452Z,5.67
2023-09-13T14:31:31.054Z,5.53
2023-09-13T14:36:34.695Z,5.25
2023-09-13T14:41:38.401Z,5.82
2023-09-13T14:46:43.467Z,5.35
2023-09-13T14:51:50.051Z,6.00
2023-09-13T14:56:54.119Z,5.85
2023-09-13T15:02:00.093Z,5.78
2023-09-13T15:07:03.748Z,5.60
2023-09-13T15:12:11.055Z,5.32
2023-09-13T15:17:16.170Z,5.50
2023-09-13T15:22:19.893Z,5.80
2023-09-13T15:27:26.123Z,5.80
2023-09-13T15:32:31.296Z,5.78
2023-09-13T15:37:35.057Z,5.80
2023-09-13T15:42:39.935Z,5.85
2023-09-13T15:47:45.036Z,6.00
2023-09-13T15:52:49.582Z,6.90
2023-09-13T15:57:53.126Z,6.72
2023-09-13T16:02:58.344Z,6.73
2023-09-13T16:08:01.942Z,6.85
2023-09-13T16:13:05.777Z,7.00
2023-09-13T16:18:10.735Z,6.93
2023-09-13T16:23:16.693Z,6.72
2023-09-13T16:28:20.612Z,7.60
2023-09-13T16:33:26.377Z,7.72
2023-09-13T16:38:29.983Z,7.80
2023-09-13T16:43:33.483Z,7.90
2023-09-13T16:48:38.431Z,7.93
2023-09-13T16:53:41.929Z,7.78
2023-09-13T16:58:45.841Z,11.20
2023-09-13T17:03:51.165Z,8.65
2023-09-13T17:08:57.201Z,8.68
2023-09-13T17:14:00.787Z,7.88
2023-09-13T17:19:05.806Z,8.88
2023-09-13T17:24:09.487Z,8.88
2023-09-13T17:29:12.995Z,9.57
2023-09-13T17:34:17.913Z,9.00
2023-09-13T17:39:21.654Z,9.60
2023-09-13T17:44:25.710Z,10.23
2023-09-13T17:49:30.681Z,9.90
2023-09-13T17:54:34.755Z,10.07
2023-09-13T17:59:39.017Z,8.63
2023-09-13T18:04:44.071Z,9.07
2023-09-13T18:09:48.024Z,8.85
2023-09-13T18:14:51.989Z,9.93
2023-09-13T18:19:56.922Z,10.25
2023-09-13T18:25:00.454Z,10.23
2023-09-13T18:30:04.899Z,10.95
2023-09-13T18:35:11.389Z,10.38
2023-09-13T18:40:14.889Z,11.00
2023-09-13T18:45:18.485Z,10.25
2023-09-13T18:50:23.384Z,9.38
2023-09-13T18:55:26.956Z,11.32
2023-09-13T19:00:30.597Z,11.30
2023-09-13T19:05:35.490Z,10.02
2023-09-13T19:10:39.071Z,10.30
2023-09-13T19:15:42.697Z,9.82
2023-09-13T19:20:49.221Z,9.93
2023-09-13T19:25:53.365Z,10.52
2023-09-13T19:30:59.642Z,11.25
2023-09-13T19:36:06.684Z,9.85
2023-09-13T19:41:13.400Z,10.95
2023-09-13T19:46:17.408Z,10.75
2023-09-13T19:51:22.862Z,10.57
2023-09-13T19:56:26.453Z,10.15
2023-09-13T20:01:29.943Z,10.20
2023-09-13T20:06:37.303Z,9.20
2023-09-13T20:11:44.603Z,9.38
2023-09-13T20:16:48.135Z,9.82
2023-09-13T20:21:53.025Z,10.07
2023-09-13T20:26:56.573Z,9.63
2023-09-13T20:32:00.081Z,9.40
2023-09-13T20:37:05.423Z,10.05
2023-09-13T20:42:11.253Z,10.93
2023-09-13T20:47:14.728Z,11.50
2023-09-13T20:52:19.731Z,10.48
2023-09-13T20:57:23.278Z,11.20
2023-09-13T21:02:26.756Z,12.70
2023-09-13T21:07:31.671Z,11.75
2023-09-13T21:12:35.267Z,12.95
2023-09-13T21:17:38.811Z,11.95
2023-09-13T21:22:43.754Z,12.20
2023-09-13T21:32:50.595Z,11.05
2023-09-13T21:37:55.468Z,13.45
2023-09-13T21:42:59.039Z,12.50
2023-09-13T21:48:02.635Z,12.90
2023-09-13T21:53:07.661Z,11.60
2023-09-13T21:58:13.712Z,12.07
2023-09-13T22:03:18.038Z,11.80
2023-09-13T22:08:23.164Z,12.00
2023-09-13T22:13:27.045Z,11.93
2023-09-13T22:18:31.037Z,11.50
2023-09-13T22:23:36.146Z,11.48
2023-09-13T22:28:39.733Z,12.35
2023-09-13T22:33:43.381Z,11.60
2023-09-13T22:38:58.402Z,13.20
2023-09-13T22:44:11.883Z,11.82
2023-09-13T22:49:15.510Z,14.07
2023-09-13T22:54:20.932Z,12.63
2023-09-13T22:59:24.994Z,13.90
2023-09-13T23:04:28.624Z,12.37
2023-09-13T23:09:34.859Z,13.20
2023-09-13T23:14:38.902Z,12.93
2023-09-13T23:19:42.361Z,12.30
2023-09-13T23:24:47.266Z,11.75
2023-09-13T23:29:50.813Z,13.25
2023-09-13T23:34:54.432Z,12.75
2023-09-13T23:39:59.889Z,13.20
2023-09-13T23:45:03.722Z,13.63
2023-09-13T23:50:08.910Z,13.00
2023-09-13T23:55:14.147Z,14.50
